sensor_id;sensor_type;location;lat;lon;timestamp;P1;durP1;ratioP1;P2;durP2;ratioP2
54545;SDS011;40444;45.184;9.850;2022-08-21T00:00:24;4.85;;;4.30;;
54545;SDS011;40444;45.184;9.850;2022-08-21T00:02:56;5.15;;;4.10;;
54545;SDS011;40444;45.184;9.850;2022-08-21T00:05:29;4.90;;;4.40;;
54545;SDS011;40444;45.184;9.850;2022-08-21T00:08:00;6.90;;;4.75;;
54545;SDS011;40444;45.184;9.850;2022-08-21T00:10:28;5.00;;;4.45;;
54545;SDS011;40444;45.184;9.850;2022-08-21T00:12:57;6.32;;;4.65;;
54545;SDS011;40444;45.184;9.850;2022-08-21T00:15:31;6.28;;;5.10;;
54545;SDS011;40444;45.184;9.850;2022-08-21T00:18:02;6.10;;;4.82;;
54545;SDS011;40444;45.184;9.850;2022-08-21T00:20:32;5.32;;;4.82;;
54545;SDS011;40444;45.184;9.850;2022-08-21T00:23:02;6.93;;;5.22;;
54545;SDS011;40444;45.184;9.850;2022-08-21T00:25:31;5.15;;;4.50;;
54545;SDS011;40444;45.184;9.850;2022-08-21T00:28:00;6.95;;;5.10;;
54545;SDS011;40444;45.184;9.850;2022-08-21T00:30:30;5.40;;;4.88;;
54545;SDS011;40444;45.184;9.850;2022-08-21T00:32:59;5.95;;;5.00;;
54545;SDS011;40444;45.184;9.850;2022-08-21T00:35:30;6.30;;;5.70;;
54545;SDS011;40444;45.184;9.850;2022-08-21T00:38:01;5.82;;;5.32;;
54545;SDS011;40444;45.184;9.850;2022-08-21T00:40:33;5.85;;;5.25;;
54545;SDS011;40444;45.184;9.850;2022-08-21T00:43:08;5.75;;;5.15;;
54545;SDS011;40444;45.184;9.850;2022-08-21T00:45:40;5.85;;;5.03;;
54545;SDS011;40444;45.184;9.850;2022-08-21T00:48:09;6.10;;;5.50;;
54545;SDS011;40444;45.184;9.850;2022-08-21T00:50:42;5.90;;;5.40;;
54545;SDS011;40444;45.184;9.850;2022-08-21T00:53:16;6.70;;;6.00;;
54545;SDS011;40444;45.184;9.850;2022-08-21T00:55:45;6.60;;;5.60;;
54545;SDS011;40444;45.184;9.850;2022-08-21T00:58:15;6.40;;;5.80;;
54545;SDS011;40444;45.184;9.850;2022-08-21T01:00:47;5.78;;;5.18;;
54545;SDS011;40444;45.184;9.850;2022-08-21T01:03:20;6.85;;;5.47;;
54545;SDS011;40444;45.184;9.850;2022-08-21T01:05:51;5.88;;;5.32;;
54545;SDS011;40444;45.184;9.850;2022-08-21T01:08:21;7.25;;;5.97;;
54545;SDS011;40444;45.184;9.850;2022-08-21T01:10:52;7.15;;;6.32;;
54545;SDS011;40444;45.184;9.850;2022-08-21T01:13:25;8.07;;;7.07;;
54545;SDS011;40444;45.184;9.850;2022-08-21T01:15:56;7.13;;;6.43;;
54545;SDS011;40444;45.184;9.850;2022-08-21T01:18:27;7.25;;;6.55;;
54545;SDS011;40444;45.184;9.850;2022-08-21T01:21:05;7.40;;;6.70;;
54545;SDS011;40444;45.184;9.850;2022-08-21T01:23:40;7.95;;;7.15;;
54545;SDS011;40444;45.184;9.850;2022-08-21T01:26:12;7.75;;;7.00;;
54545;SDS011;40444;45.184;9.850;2022-08-21T01:28:45;8.07;;;7.38;;
54545;SDS011;40444;45.184;9.850;2022-08-21T01:31:35;7.75;;;6.95;;
54545;SDS011;40444;45.184;9.850;2022-08-21T01:34:05;8.55;;;7.25;;
54545;SDS011;40444;45.184;9.850;2022-08-21T01:36:34;8.75;;;7.85;;
54545;SDS011;40444;45.184;9.850;2022-08-21T01:39:03;7.57;;;6.88;;
54545;SDS011;40444;45.184;9.850;2022-08-21T01:41:32;7.85;;;7.05;;
54545;SDS011;40444;45.184;9.850;2022-08-21T01:44:01;8.75;;;6.78;;
54545;SDS011;40444;45.184;9.850;2022-08-21T01:46:31;7.60;;;6.90;;
54545;SDS011;40444;45.184;9.850;2022-08-21T01:49:00;7.85;;;7.15;;
54545;SDS011;40444;45.184;9.850;2022-08-21T01:51:29;8.15;;;7.35;;
54545;SDS011;40444;45.184;9.850;2022-08-21T01:53:57;8.60;;;7.55;;
54545;SDS011;40444;45.184;9.850;2022-08-21T01:56:26;8.98;;;7.15;;
54545;SDS011;40444;45.184;9.850;2022-08-21T01:58:56;8.35;;;7.63;;
54545;SDS011;40444;45.184;9.850;2022-08-21T02:01:24;7.50;;;6.80;;
54545;SDS011;40444;45.184;9.850;2022-08-21T02:03:53;8.48;;;7.68;;
54545;SDS011;40444;45.184;9.850;2022-08-21T02:06:22;7.90;;;7.20;;
54545;SDS011;40444;45.184;9.850;2022-08-21T02:08:51;7.40;;;6.70;;
54545;SDS011;40444;45.184;9.850;2022-08-21T02:11:20;8.07;;;7.05;;
54545;SDS011;40444;45.184;9.850;2022-08-21T02:13:49;8.88;;;7.13;;
54545;SDS011;40444;45.184;9.850;2022-08-21T02:16:18;8.00;;;7.20;;
54545;SDS011;40444;45.184;9.850;2022-08-21T02:18:47;8.23;;;7.43;;
54545;SDS011;40444;45.184;9.850;2022-08-21T02:21:16;7.88;;;7.03;;
54545;SDS011;40444;45.184;9.850;2022-08-21T02:23:44;9.32;;;7.88;;
54545;SDS011;40444;45.184;9.850;2022-08-21T02:26:13;7.82;;;7.13;;
54545;SDS011;40444;45.184;9.850;2022-08-21T02:28:41;8.05;;;7.25;;
54545;SDS011;40444;45.184;9.850;2022-08-21T02:31:10;9.50;;;7.40;;
54545;SDS011;40444;45.184;9.850;2022-08-21T02:33:39;8.38;;;7.55;;
54545;SDS011;40444;45.184;9.850;2022-08-21T02:36:08;7.43;;;6.72;;
54545;SDS011;40444;45.184;9.850;2022-08-21T02:38:39;8.02;;;7.22;;
54545;SDS011;40444;45.184;9.850;2022-08-21T02:41:11;8.77;;;7.88;;
54545;SDS011;40444;45.184;9.850;2022-08-21T02:43:44;8.93;;;8.13;;
54545;SDS011;40444;45.184;9.850;2022-08-21T02:46:14;8.73;;;7.82;;
54545;SDS011;40444;45.184;9.850;2022-08-21T02:48:45;9.20;;;8.30;;
54545;SDS011;40444;45.184;9.850;2022-08-21T02:51:15;9.00;;;7.65;;
54545;SDS011;40444;45.184;9.850;2022-08-21T02:53:46;8.07;;;7.38;;
54545;SDS011;40444;45.184;9.850;2022-08-21T02:56:18;9.15;;;8.27;;
54545;SDS011;40444;45.184;9.850;2022-08-21T02:58:50;8.20;;;7.40;;
54545;SDS011;40444;45.184;9.850;2022-08-21T03:01:21;9.30;;;8.40;;
54545;SDS011;40444;45.184;9.850;2022-08-21T03:03:50;9.10;;;8.30;;
54545;SDS011;40444;45.184;9.850;2022-08-21T03:06:19;9.93;;;8.98;;
54545;SDS011;40444;45.184;9.850;2022-08-21T03:08:50;9.60;;;8.60;;
54545;SDS011;40444;45.184;9.850;2022-08-21T03:11:19;9.40;;;8.48;;
54545;SDS011;40444;45.184;9.850;2022-08-21T03:13:49;12.70;;;9.55;;
54545;SDS011;40444;45.184;9.850;2022-08-21T03:16:17;9.38;;;8.48;;
54545;SDS011;40444;45.184;9.850;2022-08-21T03:18:47;8.95;;;8.15;;
54545;SDS011;40444;45.184;9.850;2022-08-21T03:21:15;9.63;;;8.60;;
54545;SDS011;40444;45.184;9.850;2022-08-21T03:23:46;9.60;;;8.70;;
54545;SDS011;40444;45.184;9.850;2022-08-21T03:26:16;9.77;;;8.73;;
54545;SDS011;40444;45.184;9.850;2022-08-21T03:28:46;9.18;;;8.35;;
54545;SDS011;40444;45.184;9.850;2022-08-21T03:31:14;9.50;;;8.60;;
54545;SDS011;40444;45.184;9.850;2022-08-21T03:33:43;9.43;;;8.38;;
54545;SDS011;40444;45.184;9.850;2022-08-21T03:36:11;8.68;;;7.88;;
54545;SDS011;40444;45.184;9.850;2022-08-21T03:38:40;9.38;;;8.48;;
54545;SDS011;40444;45.184;9.850;2022-08-21T03:41:09;8.85;;;7.95;;
54545;SDS011;40444;45.184;9.850;2022-08-21T03:43:37;8.95;;;8.07;;
54545;SDS011;40444;45.184;9.850;2022-08-21T03:46:06;8.70;;;7.85;;
54545;SDS011;40444;45.184;9.850;2022-08-21T03:48:36;10.15;;;8.50;;
54545;SDS011;40444;45.184;9.850;2022-08-21T03:51:05;8.77;;;7.85;;
54545;SDS011;40444;45.184;9.850;2022-08-21T03:53:34;8.70;;;7.90;;
54545;SDS011;40444;45.184;9.850;2022-08-21T03:56:04;8.93;;;8.13;;
54545;SDS011;40444;45.184;9.850;2022-08-21T03:58:34;7.53;;;6.72;;
54545;SDS011;40444;45.184;9.850;2022-08-21T04:01:04;8.65;;;7.85;;
54545;SDS011;40444;45.184;9.850;2022-08-21T04:03:34;8.70;;;7.90;;
54545;SDS011;40444;45.184;9.850;2022-08-21T04:06:05;9.35;;;8.30;;
54545;SDS011;40444;45.184;9.850;2022-08-21T04:08:34;10.77;;;9.02;;
54545;SDS011;40444;45.184;9.850;2022-08-21T04:11:03;9.38;;;8.15;;
54545;SDS011;40444;45.184;9.850;2022-08-21T04:13:33;8.15;;;7.45;;
54545;SDS011;40444;45.184;9.850;2022-08-21T04:16:11;8.57;;;7.78;;
54545;SDS011;40444;45.184;9.850;2022-08-21T04:18:40;8.48;;;7.68;;
54545;SDS011;40444;45.184;9.850;2022-08-21T04:21:10;8.88;;;8.07;;
54545;SDS011;40444;45.184;9.850;2022-08-21T04:23:40;8.50;;;7.70;;
54545;SDS011;40444;45.184;9.850;2022-08-21T04:26:09;10.38;;;9.30;;
54545;SDS011;40444;45.184;9.850;2022-08-21T04:28:38;9.63;;;8.63;;
54545;SDS011;40444;45.184;9.850;2022-08-21T04:31:07;8.48;;;7.65;;
54545;SDS011;40444;45.184;9.850;2022-08-21T04:33:36;9.10;;;8.20;;
54545;SDS011;40444;45.184;9.850;2022-08-21T04:36:05;9.57;;;8.60;;
54545;SDS011;40444;45.184;9.850;2022-08-21T04:38:35;9.73;;;8.73;;
54545;SDS011;40444;45.184;9.850;2022-08-21T04:41:09;8.90;;;7.97;;
54545;SDS011;40444;45.184;9.850;2022-08-21T04:43:38;8.45;;;7.70;;
54545;SDS011;40444;45.184;9.850;2022-08-21T04:46:07;8.63;;;7.82;;
54545;SDS011;40444;45.184;9.850;2022-08-21T04:48:43;9.48;;;8.55;;
54545;SDS011;40444;45.184;9.850;2022-08-21T04:51:16;9.57;;;8.70;;
54545;SDS011;40444;45.184;9.850;2022-08-21T04:53:52;9.35;;;8.45;;
54545;SDS011;40444;45.184;9.850;2022-08-21T04:56:45;9.82;;;8.82;;
54545;SDS011;40444;45.184;9.850;2022-08-21T04:59:16;11.25;;;8.82;;
54545;SDS011;40444;45.184;9.850;2022-08-21T05:01:49;9.05;;;8.23;;
54545;SDS011;40444;45.184;9.850;2022-08-21T05:04:20;8.88;;;8.07;;
54545;SDS011;40444;45.184;9.850;2022-08-21T05:06:53;8.02;;;7.22;;
54545;SDS011;40444;45.184;9.850;2022-08-21T05:09:24;8.13;;;7.38;;
54545;SDS011;40444;45.184;9.850;2022-08-21T05:11:54;7.68;;;6.93;;
54545;SDS011;40444;45.184;9.850;2022-08-21T05:14:23;7.13;;;6.28;;
54545;SDS011;40444;45.184;9.850;2022-08-21T05:16:55;7.45;;;6.75;;
54545;SDS011;40444;45.184;9.850;2022-08-21T05:19:23;6.97;;;6.22;;
54545;SDS011;40444;45.184;9.850;2022-08-21T05:21:52;6.85;;;5.97;;
54545;SDS011;40444;45.184;9.850;2022-08-21T05:24:20;6.30;;;5.70;;
54545;SDS011;40444;45.184;9.850;2022-08-21T05:26:49;6.57;;;5.95;;
54545;SDS011;40444;45.184;9.850;2022-08-21T05:29:18;6.28;;;5.28;;
54545;SDS011;40444;45.184;9.850;2022-08-21T05:31:47;6.47;;;5.40;;
54545;SDS011;40444;45.184;9.850;2022-08-21T05:34:20;6.80;;;5.40;;
54545;SDS011;40444;45.184;9.850;2022-08-21T05:36:51;8.07;;;5.88;;
54545;SDS011;40444;45.184;9.850;2022-08-21T05:39:19;7.47;;;5.70;;
54545;SDS011;40444;45.184;9.850;2022-08-21T05:41:48;5.78;;;4.80;;
54545;SDS011;40444;45.184;9.850;2022-08-21T05:44:17;5.68;;;5.03;;
54545;SDS011;40444;45.184;9.850;2022-08-21T20:58:10;3.95;;;2.97;;
54545;SDS011;40444;45.184;9.850;2022-08-21T21:00:46;3.80;;;3.28;;
54545;SDS011;40444;45.184;9.850;2022-08-21T21:03:20;3.83;;;3.38;;
54545;SDS011;40444;45.184;9.850;2022-08-21T21:05:58;3.78;;;3.47;;
54545;SDS011;40444;45.184;9.850;2022-08-21T21:08:31;6.07;;;3.40;;
54545;SDS011;40444;45.184;9.850;2022-08-21T21:11:17;3.78;;;3.47;;
54545;SDS011;40444;45.184;9.850;2022-08-21T21:13:52;5.13;;;3.75;;
54545;SDS011;40444;45.184;9.850;2022-08-21T21:16:40;3.75;;;3.20;;
54545;SDS011;40444;45.184;9.850;2022-08-21T21:21:55;4.70;;;3.92;;
54545;SDS011;40444;45.184;9.850;2022-08-21T21:24:38;4.55;;;3.97;;
54545;SDS011;40444;45.184;9.850;2022-08-21T21:30:29;4.25;;;3.88;;
54545;SDS011;40444;45.184;9.850;2022-08-21T21:33:02;4.10;;;3.70;;
54545;SDS011;40444;45.184;9.850;2022-08-21T21:35:40;5.10;;;4.15;;
54545;SDS011;40444;45.184;9.850;2022-08-21T21:38:16;4.30;;;3.90;;
54545;SDS011;40444;45.184;9.850;2022-08-21T22:04:01;5.60;;;5.10;;
54545;SDS011;40444;45.184;9.850;2022-08-21T22:07:06;6.80;;;5.28;;
54545;SDS011;40444;45.184;9.850;2022-08-21T22:09:52;5.97;;;5.40;;
54545;SDS011;40444;45.184;9.850;2022-08-21T22:15:16;6.28;;;5.78;;
54545;SDS011;40444;45.184;9.850;2022-08-21T22:18:02;5.40;;;5.00;;
54545;SDS011;40444;45.184;9.850;2022-08-21T22:20:47;5.53;;;4.90;;
54545;SDS011;40444;45.184;9.850;2022-08-21T22:23:19;6.18;;;5.30;;
54545;SDS011;40444;45.184;9.850;2022-08-21T22:25:52;6.25;;;5.65;;
54545;SDS011;40444;45.184;9.850;2022-08-21T22:28:30;5.78;;;5.20;;
54545;SDS011;40444;45.184;9.850;2022-08-21T22:31:16;5.32;;;4.85;;
54545;SDS011;40444;45.184;9.850;2022-08-21T22:34:12;6.40;;;5.50;;
54545;SDS011;40444;45.184;9.850;2022-08-21T22:36:56;5.65;;;4.90;;
54545;SDS011;40444;45.184;9.850;2022-08-21T22:39:32;6.85;;;5.82;;
54545;SDS011;40444;45.184;9.850;2022-08-21T22:42:26;6.65;;;5.60;;
54545;SDS011;40444;45.184;9.850;2022-08-21T22:44:56;5.75;;;5.15;;
54545;SDS011;40444;45.184;9.850;2022-08-21T22:47:35;6.00;;;5.50;;
54545;SDS011;40444;45.184;9.850;2022-08-21T22:50:40;6.80;;;6.20;;
54545;SDS011;40444;45.184;9.850;2022-08-21T22:53:07;12.00;;;7.50;;
54545;SDS011;40444;45.184;9.850;2022-08-21T23:00:58;6.80;;;6.10;;
54545;SDS011;40444;45.184;9.850;2022-08-21T23:03:35;7.57;;;6.88;;
54545;SDS011;40444;45.184;9.850;2022-08-21T23:08:59;6.65;;;5.97;;
54545;SDS011;40444;45.184;9.850;2022-08-21T23:11:38;6.50;;;5.90;;
54545;SDS011;40444;45.184;9.850;2022-08-21T23:14:10;7.95;;;6.45;;
54545;SDS011;40444;45.184;9.850;2022-08-21T23:17:07;7.38;;;6.78;;
54545;SDS011;40444;45.184;9.850;2022-08-21T23:19:50;7.07;;;6.47;;
54545;SDS011;40444;45.184;9.850;2022-08-21T23:25:39;8.63;;;7.07;;
54545;SDS011;40444;45.184;9.850;2022-08-21T23:31:39;8.90;;;8.10;;
54545;SDS011;40444;45.184;9.850;2022-08-21T23:40:31;10.25;;;8.23;;
54545;SDS011;40444;45.184;9.850;2022-08-21T23:44:13;8.98;;;8.07;;
54545;SDS011;40444;45.184;9.850;2022-08-21T23:49:41;8.55;;;7.75;;
54545;SDS011;40444;45.184;9.850;2022-08-21T23:52:39;8.60;;;7.78;;
54545;SDS011;40444;45.184;9.850;2022-08-21T23:55:21;10.18;;;8.75;;
